createdAt,value
2022-08-14T00:01:11.349Z,14.80
2022-08-14T00:03:58.192Z,22.40
2022-08-14T00:06:55.958Z,16.20
2022-08-14T00:10:50.494Z,12.20
2022-08-14T00:13:37.953Z,16.20
2022-08-14T00:17:09.129Z,11.80
2022-08-14T00:20:23.655Z,13.40
2022-08-14T00:23:35.037Z,15.10
2022-08-14T00:27:03.944Z,13.20
2022-08-14T00:30:08.446Z,12.00
2022-08-14T00:33:16.421Z,12.90
2022-08-14T00:36:48.589Z,12.60
2022-08-14T00:40:27.466Z,13.60
2022-08-14T00:44:27.558Z,13.50
2022-08-14T00:47:24.870Z,10.50
2022-08-14T00:50:34.676Z,15.10
2022-08-14T00:53:44.315Z,11.30
2022-08-14T00:56:41.729Z,14.10
2022-08-14T00:59:52.386Z,11.20
2022-08-14T01:02:53.918Z,14.30
2022-08-14T01:06:23.696Z,10.50
2022-08-14T01:10:07.682Z,10.70
2022-08-14T01:13:22.328Z,9.10
2022-08-14T01:16:32.820Z,11.00
2022-08-14T01:19:58.043Z,10.60
2022-08-14T01:23:19.003Z,9.80
2022-08-14T01:26:38.892Z,12.30
2022-08-14T01:30:04.694Z,19.40
2022-08-14T01:35:16.618Z,12.50
2022-08-14T01:37:16.518Z,11.00
2022-08-14T01:41:11.932Z,15.50
2022-08-14T01:45:09.716Z,10.60
2022-08-14T01:48:25.865Z,12.30
2022-08-14T01:51:51.783Z,11.50
2022-08-14T01:55:26.625Z,13.00
2022-08-14T01:59:22.290Z,11.70
2022-08-14T02:03:17.388Z,10.80
2022-08-14T02:06:52.051Z,11.30
2022-08-14T02:10:29.589Z,10.20
2022-08-14T02:14:15.641Z,13.10
2022-08-14T02:18:18.044Z,13.10
2022-08-14T02:21:52.483Z,11.90
2022-08-14T02:25:38.605Z,10.90
2022-08-14T02:29:27.882Z,12.10
2022-08-14T02:33:02.092Z,17.30
2022-08-14T02:37:04.554Z,9.90
2022-08-14T02:40:32.445Z,13.90
2022-08-14T02:43:45.996Z,13.30
2022-08-14T02:46:42.393Z,12.50
2022-08-14T02:50:05.219Z,11.00
2022-08-14T02:54:09.901Z,16.50
2022-08-14T02:57:39.990Z,12.80
2022-08-14T03:01:06.051Z,12.00
2022-08-14T03:04:06.198Z,12.30
2022-08-14T03:07:07.675Z,12.70
2022-08-14T03:10:27.484Z,13.60
2022-08-14T03:13:19.358Z,10.60
2022-08-14T03:16:20.086Z,11.60
2022-08-14T03:19:30.510Z,16.10
2022-08-14T03:23:00.404Z,12.30
2022-08-14T03:26:01.017Z,8.60
2022-08-14T03:29:20.777Z,11.10
2022-08-14T03:32:34.637Z,8.70
2022-08-14T03:36:00.218Z,9.70
2022-08-14T03:39:12.538Z,9.30
2022-08-14T03:42:19.312Z,8.30
2022-08-14T03:45:52.407Z,11.90
2022-08-14T03:48:40.220Z,12.20
2022-08-14T03:51:29.442Z,15.70
2022-08-14T03:54:20.435Z,11.10
2022-08-14T03:57:43.589Z,11.70
2022-08-14T04:01:25.237Z,10.80
2022-08-14T04:04:49.427Z,9.80
2022-08-14T04:08:08.425Z,8.50
2022-08-14T04:11:43.567Z,11.30
2022-08-14T04:15:12.888Z,13.70
2022-08-14T04:18:35.216Z,12.30
2022-08-14T04:22:03.579Z,13.80
2022-08-14T04:25:16.074Z,11.70
2022-08-14T04:29:02.171Z,11.40
2022-08-14T04:33:02.886Z,10.70
2022-08-14T04:35:56.501Z,10.70
2022-08-14T04:39:46.478Z,13.10
2022-08-14T04:43:17.118Z,17.00
2022-08-14T04:46:55.335Z,13.10
2022-08-14T04:50:23.179Z,12.20
2022-08-14T04:53:40.879Z,14.80
2022-08-14T04:56:39.792Z,10.30
2022-08-14T05:00:18.177Z,11.60
2022-08-14T05:03:28.394Z,12.50
2022-08-14T05:06:35.167Z,18.50
2022-08-14T05:09:43.868Z,14.20
2022-08-14T05:13:14.207Z,10.20
2022-08-14T05:16:04.457Z,10.50
2022-08-14T05:19:25.095Z,10.00
2022-08-14T05:22:34.769Z,11.50
2022-08-14T05:25:55.025Z,11.10
2022-08-14T05:29:05.007Z,11.50
2022-08-14T05:32:11.369Z,14.60
2022-08-14T05:35:25.738Z,11.70
2022-08-14T05:38:31.163Z,14.30
2022-08-14T05:42:10.054Z,11.80
2022-08-14T05:45:19.064Z,9.60
2022-08-14T05:48:33.676Z,10.40
2022-08-14T05:51:51.346Z,9.60
2022-08-14T05:55:11.262Z,10.00
2022-08-14T05:58:07.327Z,10.20
2022-08-14T06:01:03.875Z,12.50
2022-08-14T06:04:09.669Z,12.00
2022-08-14T06:07:18.844Z,12.10
2022-08-14T06:10:24.367Z,10.60
2022-08-14T06:13:44.607Z,8.60
2022-08-14T06:16:57.907Z,11.10
2022-08-14T06:20:10.380Z,10.40
2022-08-14T06:23:39.106Z,8.50
2022-08-14T06:26:56.585Z,5.90
2022-08-14T06:30:24.045Z,13.10
2022-08-14T06:33:30.052Z,9.70
2022-08-14T06:36:32.415Z,15.90
2022-08-14T06:39:36.955Z,7.50
2022-08-14T06:42:33.566Z,9.10
2022-08-14T06:45:54.643Z,8.20
2022-08-14T06:48:51.498Z,8.30
2022-08-14T06:51:51.749Z,13.80
2022-08-14T06:54:59.846Z,11.40
2022-08-14T06:57:59.658Z,8.40
2022-08-14T07:01:28.512Z,10.40
2022-08-14T07:04:56.826Z,12.30
2022-08-14T07:07:53.675Z,9.80
2022-08-14T07:10:37.040Z,9.00
2022-08-14T07:13:27.433Z,14.10
2022-08-14T07:16:27.437Z,9.00
2022-08-14T07:19:31.072Z,9.60
2022-08-14T07:22:25.793Z,10.20
2022-08-14T07:25:16.908Z,7.70
2022-08-14T07:28:20.593Z,7.00
2022-08-14T07:31:10.618Z,8.90
2022-08-14T07:34:36.103Z,15.30
2022-08-14T07:37:17.352Z,6.50
2022-08-14T07:40:27.463Z,12.00
2022-08-14T07:46:01.339Z,11.90
2022-08-14T07:48:48.422Z,10.20
2022-08-14T07:51:36.738Z,8.50
2022-08-14T07:54:30.036Z,8.30
2022-08-14T07:57:22.447Z,6.70
2022-08-14T08:00:31.285Z,10.30
2022-08-14T08:03:19.157Z,12.20
2022-08-14T08:06:10.511Z,6.80
2022-08-14T08:09:03.480Z,10.30
2022-08-14T08:11:57.400Z,9.50
2022-08-14T08:14:56.591Z,11.80
2022-08-14T08:17:53.843Z,9.00
2022-08-14T08:20:53.413Z,9.70
2022-08-14T08:23:50.840Z,6.90
2022-08-14T08:26:34.972Z,9.00
2022-08-14T08:29:28.458Z,10.70
2022-08-14T08:32:13.161Z,9.70
2022-08-14T08:34:57.572Z,4.60
2022-08-14T08:37:44.892Z,11.70
2022-08-14T08:40:42.692Z,4.50
2022-08-14T08:43:36.413Z,11.60
2022-08-14T08:46:24.036Z,6.60
2022-08-14T08:49:10.611Z,6.90
2022-08-14T08:52:04.597Z,6.40
2022-08-14T08:54:54.876Z,6.20
2022-08-14T08:57:38.008Z,8.90
2022-08-14T09:00:26.418Z,6.80
2022-08-14T09:03:13.256Z,4.50
2022-08-14T09:06:04.110Z,6.60
2022-08-14T09:09:20.669Z,6.90
2022-08-14T09:12:07.340Z,13.20
2022-08-14T09:14:57.608Z,6.30
2022-08-14T09:17:42.993Z,7.60
2022-08-14T09:20:29.832Z,5.80
2022-08-14T09:23:17.723Z,7.50
2022-08-14T09:26:21.291Z,12.10
2022-08-14T09:29:06.153Z,9.80
2022-08-14T09:31:56.816Z,8.60
2022-08-14T09:35:13.745Z,8.20
2022-08-14T09:38:06.403Z,5.80
2022-08-14T09:41:04.827Z,6.10
2022-08-14T09:44:06.723Z,6.20
2022-08-14T09:49:43.500Z,11.40
2022-08-14T09:52:54.973Z,8.20
2022-08-14T09:56:00.608Z,8.20
2022-08-14T09:58:50.129Z,8.50
2022-08-14T10:01:52.690Z,9.50
2022-08-14T10:04:46.016Z,8.50
2022-08-14T10:07:53.377Z,7.60
2022-08-14T10:10:43.374Z,10.90
2022-08-14T10:13:52.915Z,9.90
2022-08-14T10:16:47.199Z,8.60
2022-08-14T10:20:02.982Z,12.10
2022-08-14T10:23:22.113Z,9.70
2022-08-14T10:26:22.368Z,12.60
2022-08-14T10:29:28.335Z,10.30
2022-08-14T10:32:28.848Z,10.90
2022-08-14T10:35:23.265Z,10.30
2022-08-14T10:38:36.056Z,11.90
2022-08-14T10:41:48.469Z,10.60
2022-08-14T10:44:53.332Z,14.00
2022-08-14T10:48:08.801Z,9.50
2022-08-14T10:53:40.028Z,12.70
2022-08-14T10:56:35.567Z,14.30
2022-08-14T10:59:36.095Z,12.00
2022-08-14T11:03:11.020Z,13.30
2022-08-14T11:05:59.557Z,13.60
2022-08-14T11:09:16.847Z,12.10
2022-08-14T11:12:44.135Z,11.00
2022-08-14T11:15:28.665Z,12.60
2022-08-14T11:18:20.893Z,10.60
2022-08-14T11:21:19.185Z,12.70
2022-08-14T11:24:54.270Z,12.10
2022-08-14T11:27:16.615Z,16.50
2022-08-14T11:30:50.428Z,13.60
2022-08-14T11:33:09.672Z,13.20
2022-08-14T11:36:00.495Z,14.50
2022-08-14T11:38:46.810Z,11.90
2022-08-14T11:41:35.157Z,18.50
2022-08-14T11:44:45.651Z,16.00
2022-08-14T11:47:25.463Z,13.40
2022-08-14T11:50:37.021Z,14.80
2022-08-14T11:53:32.556Z,11.50
2022-08-14T11:56:18.874Z,16.50
2022-08-14T11:59:26.253Z,11.70
2022-08-14T12:03:01.585Z,15.70
2022-08-14T12:05:15.111Z,14.00
2022-08-14T12:08:06.686Z,14.10
2022-08-14T12:10:59.671Z,11.50
2022-08-14T12:13:56.135Z,17.40
2022-08-14T12:16:39.659Z,14.80
2022-08-14T12:19:26.392Z,11.50
2022-08-14T12:22:12.162Z,12.10
2022-08-14T12:25:24.621Z,9.90
2022-08-14T12:28:27.372Z,17.60
2022-08-14T12:31:20.873Z,12.30
2022-08-14T12:34:12.251Z,13.20
2022-08-14T12:37:08.113Z,18.50
2022-08-14T12:39:58.717Z,13.30
2022-08-14T12:43:02.409Z,18.30
2022-08-14T12:46:26.834Z,17.50
2022-08-14T12:49:23.062Z,16.20
2022-08-14T12:52:17.330Z,18.10
2022-08-14T12:55:06.440Z,17.50
2022-08-14T12:58:28.836Z,19.90
2022-08-14T13:01:20.651Z,22.90
2022-08-14T13:04:10.426Z,19.40
2022-08-14T13:06:54.218Z,19.40
2022-08-14T13:09:37.926Z,12.20
2022-08-14T13:12:31.999Z,14.90
2022-08-14T13:15:20.148Z,15.90
2022-08-14T13:18:17.924Z,20.00
2022-08-14T13:21:12.201Z,19.60
2022-08-14T13:24:05.387Z,20.40
2022-08-14T13:27:04.413Z,17.10
2022-08-14T13:29:51.337Z,16.20
2022-08-14T13:32:40.658Z,17.70
2022-08-14T13:35:24.576Z,19.40
2022-08-14T13:38:10.369Z,15.40
2022-08-14T13:40:59.852Z,19.00
2022-08-14T13:43:59.761Z,15.00
2022-08-14T13:46:46.386Z,19.90
2022-08-14T13:49:33.852Z,20.10
2022-08-14T13:52:52.254Z,18.10
2022-08-14T13:55:28.893Z,16.80
2022-08-14T13:58:39.883Z,16.40
2022-08-14T14:01:42.792Z,14.60
2022-08-14T14:04:49.351Z,16.00
2022-08-14T14:07:43.332Z,12.80
2022-08-14T14:10:36.950Z,12.40
2022-08-14T14:13:42.017Z,11.60
2022-08-14T14:16:30.681Z,16.70
2022-08-14T14:19:27.333Z,14.00
2022-08-14T14:23:01.029Z,12.00
2022-08-14T14:25:48.728Z,11.80
2022-08-14T14:28:41.741Z,13.50
2022-08-14T14:31:31.261Z,11.90
2022-08-14T14:34:42.704Z,13.60
2022-08-14T14:37:50.459Z,11.80
2022-08-14T14:41:01.395Z,16.70
2022-08-14T14:43:51.630Z,11.20
2022-08-14T14:46:50.672Z,14.20
2022-08-14T14:49:54.621Z,12.50
2022-08-14T14:52:39.718Z,12.80
2022-08-14T14:55:27.685Z,14.40
2022-08-14T14:58:30.017Z,13.80
2022-08-14T15:01:15.777Z,10.40
2022-08-14T15:04:04.087Z,9.90
2022-08-14T15:06:53.030Z,10.30
2022-08-14T15:09:36.575Z,10.40
2022-08-14T15:12:55.494Z,12.00
2022-08-14T15:15:23.841Z,11.30
2022-08-14T15:18:15.020Z,10.30
2022-08-14T15:21:14.996Z,11.20
2022-08-14T15:23:59.297Z,16.00
2022-08-14T15:26:44.729Z,11.60
2022-08-14T15:29:29.960Z,11.60
2022-08-14T15:32:14.737Z,10.50
2022-08-14T15:35:02.599Z,9.90
2022-08-14T15:37:45.996Z,8.30
2022-08-14T15:40:31.169Z,9.60
2022-08-14T15:43:14.742Z,9.90
2022-08-14T15:46:07.192Z,9.70
2022-08-14T15:48:50.269Z,10.90
2022-08-14T15:51:42.423Z,11.90
2022-08-14T15:54:35.667Z,12.30
2022-08-14T16:00:40.362Z,12.60
2022-08-14T16:03:35.959Z,11.00
2022-08-14T16:06:27.004Z,12.70
2022-08-14T16:09:12.297Z,13.30
2022-08-14T16:11:57.057Z,12.00
2022-08-14T16:14:43.786Z,10.60
2022-08-14T16:17:29.186Z,11.00
2022-08-14T16:20:42.445Z,13.80
2022-08-14T16:23:55.305Z,12.30
2022-08-14T16:26:41.274Z,10.80
2022-08-14T16:29:26.812Z,11.90
2022-08-14T16:32:32.464Z,14.70
2022-08-14T16:35:43.409Z,12.60
2022-08-14T16:38:48.240Z,9.30
2022-08-14T16:41:34.982Z,12.30
2022-08-14T16:44:31.553Z,12.50
2022-08-14T16:47:38.516Z,11.60
2022-08-14T16:50:44.929Z,11.00
2022-08-14T16:53:29.111Z,12.10
2022-08-14T16:56:25.370Z,11.20
2022-08-14T16:59:20.359Z,14.00
2022-08-14T17:02:42.654Z,12.70
2022-08-14T17:05:29.278Z,13.40
2022-08-14T17:08:41.812Z,13.40
2022-08-14T17:11:27.841Z,13.50
2022-08-14T17:14:19.059Z,13.50
2022-08-14T17:17:04.848Z,11.00
2022-08-14T17:20:08.679Z,15.50
2022-08-14T17:23:14.381Z,12.80
2022-08-14T17:26:00.464Z,14.40
2022-08-14T17:28:54.787Z,12.50
2022-08-14T17:32:03.837Z,15.50
2022-08-14T17:34:53.177Z,14.20
2022-08-14T17:37:45.095Z,15.50
2022-08-14T17:43:42.137Z,13.70
2022-08-14T17:46:45.753Z,15.20
2022-08-14T17:50:01.742Z,13.20
2022-08-14T17:53:30.474Z,15.60
2022-08-14T17:56:31.457Z,15.70
2022-08-14T17:59:25.779Z,13.90
2022-08-14T18:02:31.392Z,16.90
2022-08-14T18:06:06.635Z,17.40
2022-08-14T18:09:20.076Z,14.20
2022-08-14T18:12:31.829Z,14.50
2022-08-14T18:15:18.510Z,15.80
2022-08-14T18:18:24.685Z,18.10
2022-08-14T18:21:56.368Z,15.50
2022-08-14T18:24:39.455Z,14.50
2022-08-14T18:27:37.551Z,15.80
2022-08-14T18:30:40.611Z,15.80
2022-08-14T18:36:55.454Z,15.10
2022-08-14T18:40:35.016Z,16.40
2022-08-14T18:43:59.424Z,17.00
2022-08-14T18:47:56.652Z,19.60
2022-08-14T18:50:58.115Z,16.30
2022-08-14T18:54:34.451Z,16.80
2022-08-14T18:57:23.483Z,18.20
2022-08-14T19:00:51.427Z,15.30
2022-08-14T19:04:00.041Z,16.00
2022-08-14T19:06:55.889Z,16.50
2022-08-14T19:10:31.966Z,14.60
2022-08-14T19:13:48.760Z,18.30
2022-08-14T19:17:08.769Z,17.70
2022-08-14T19:20:27.210Z,18.70
2022-08-14T19:24:00.211Z,19.00
2022-08-14T19:27:37.789Z,17.10
2022-08-14T19:30:36.461Z,18.50
2022-08-14T19:33:52.718Z,22.40
2022-08-14T19:37:06.139Z,19.00
2022-08-14T19:39:59.269Z,19.00
2022-08-14T19:43:08.945Z,18.10
2022-08-14T19:46:01.339Z,18.20
2022-08-14T19:48:56.989Z,19.50
2022-08-14T19:52:17.655Z,19.90
2022-08-14T19:55:18.593Z,20.00
2022-08-14T19:58:28.093Z,20.60
2022-08-14T20:01:36.975Z,20.60
2022-08-14T20:05:04.028Z,19.50
2022-08-14T20:08:40.394Z,18.90
2022-08-14T20:12:01.927Z,21.50
2022-08-14T20:14:56.211Z,20.10
2022-08-14T20:17:52.545Z,49.60
2022-08-14T20:20:42.705Z,22.70
2022-08-14T20:23:38.429Z,35.40
2022-08-14T20:26:52.568Z,36.30
2022-08-14T20:30:29.614Z,43.90
2022-08-14T20:33:27.521Z,39.50
2022-08-14T20:36:26.557Z,37.60
2022-08-14T20:39:34.339Z,31.60
2022-08-14T20:42:43.626Z,29.00
2022-08-14T20:45:48.535Z,32.90
2022-08-14T20:48:52.642Z,33.50
2022-08-14T20:51:58.843Z,30.70
2022-08-14T20:54:50.634Z,32.70
2022-08-14T20:57:43.759Z,28.80
2022-08-14T21:01:06.116Z,26.60
2022-08-14T21:04:31.472Z,28.90
2022-08-14T21:07:25.552Z,25.50
2022-08-14T21:10:35.280Z,28.40
2022-08-14T21:14:19.922Z,38.50
2022-08-14T21:16:58.213Z,28.70
2022-08-14T21:20:21.382Z,33.40
2022-08-14T21:23:35.755Z,32.00
2022-08-14T21:27:09.401Z,28.30
2022-08-14T21:30:21.433Z,30.60
2022-08-14T21:33:32.073Z,29.80
2022-08-14T21:36:30.925Z,38.30
2022-08-14T21:39:28.012Z,30.10
2022-08-14T21:42:23.185Z,29.40
2022-08-14T21:45:20.815Z,33.20
2022-08-14T21:48:14.181Z,30.60
2022-08-14T21:51:54.899Z,31.60
2022-08-14T21:55:08.651Z,31.40
2022-08-14T21:58:51.519Z,27.50
2022-08-14T22:02:00.860Z,26.20
2022-08-14T22:05:04.067Z,28.20
2022-08-14T22:08:26.928Z,29.80
2022-08-14T22:11:37.617Z,29.50
2022-08-14T22:14:32.020Z,30.10
2022-08-14T22:17:35.425Z,30.30
2022-08-14T22:20:53.706Z,28.60
2022-08-14T22:24:38.340Z,31.00
2022-08-14T22:27:56.394Z,27.20
2022-08-14T22:31:35.066Z,31.10
2022-08-14T22:34:29.365Z,35.10
2022-08-14T22:37:32.177Z,28.30
2022-08-14T22:41:20.737Z,32.20
2022-08-14T22:44:32.106Z,30.80
2022-08-14T22:48:11.103Z,30.70
2022-08-14T22:51:54.883Z,29.90
2022-08-14T22:55:09.740Z,28.80
2022-08-14T22:58:47.494Z,31.40
2022-08-14T23:02:03.836Z,31.50
2022-08-14T23:05:16.014Z,33.10
2022-08-14T23:08:58.978Z,33.80
2022-08-14T23:12:27.778Z,32.50
2022-08-14T23:15:44.869Z,35.40
2022-08-14T23:18:53.600Z,30.70
2022-08-14T23:22:08.159Z,35.50
2022-08-14T23:25:56.921Z,33.20
2022-08-14T23:28:33.375Z,37.80
2022-08-14T23:31:56.093Z,33.70
2022-08-14T23:35:17.736Z,36.70
2022-08-14T23:38:31.592Z,40.70
2022-08-14T23:41:24.262Z,32.40
2022-08-14T23:47:28.326Z,31.70
2022-08-14T23:50:34.206Z,33.40
2022-08-14T23:53:48.085Z,30.90
2022-08-14T23:56:45.501Z,34.10
2022-08-14T23:59:54.254Z,33.80
